createdAt,value
2019-05-11T00:03:58.457Z,11.36
2019-05-11T00:09:07.561Z,11.36
2019-05-11T00:14:14.457Z,11.45
2019-05-11T00:19:21.459Z,11.45
2019-05-11T00:24:29.598Z,11.45
2019-05-11T00:29:42.480Z,11.41
2019-05-11T00:34:49.421Z,11.37
2019-05-11T00:39:56.448Z,11.32
2019-05-11T00:45:03.546Z,11.30
2019-05-11T00:50:12.664Z,11.31
2019-05-11T00:55:20.620Z,11.40
2019-05-11T01:00:29.478Z,11.42
2019-05-11T01:05:36.459Z,11.47
2019-05-11T01:10:43.563Z,11.45
2019-05-11T01:15:50.455Z,11.45
2019-05-11T01:20:57.457Z,11.44
2019-05-11T01:26:04.559Z,11.33
2019-05-11T01:31:11.573Z,10.98
2019-05-11T01:36:18.458Z,10.98
2019-05-11T01:41:25.577Z,10.80
2019-05-11T01:46:32.438Z,10.46
2019-05-11T01:51:39.446Z,10.46
2019-05-11T01:56:46.580Z,10.35
2019-05-11T02:01:54.840Z,10.08
2019-05-11T02:07:01.610Z,10.08
2019-05-11T02:12:08.492Z,9.87
2019-05-11T02:17:17.252Z,9.87
2019-05-11T02:22:24.444Z,9.76
2019-05-11T02:27:31.451Z,9.56
2019-05-11T02:32:38.495Z,9.41
2019-05-11T02:37:46.464Z,9.34
2019-05-11T02:42:53.450Z,9.24
2019-05-11T02:48:00.446Z,9.24
2019-05-11T02:53:08.227Z,9.20
2019-05-11T02:58:15.437Z,9.17
2019-05-11T03:03:22.431Z,9.17
2019-05-11T03:08:29.479Z,9.15
2019-05-11T03:13:36.448Z,9.18
2019-05-11T03:18:43.468Z,9.24
2019-05-11T03:23:50.445Z,9.27
2019-05-11T03:28:57.439Z,9.29
2019-05-11T03:34:04.475Z,9.32
2019-05-11T03:39:11.441Z,9.32
2019-05-11T03:44:18.485Z,9.42
2019-05-11T03:49:25.447Z,9.57
2019-05-11T03:54:32.564Z,9.57
2019-05-11T03:59:39.563Z,9.87
2019-05-11T04:04:46.556Z,10.00
2019-05-11T04:09:53.450Z,9.98
2019-05-11T04:15:00.557Z,9.98
2019-05-11T04:20:08.028Z,10.01
2019-05-11T04:25:16.102Z,10.01
2019-05-11T04:30:23.544Z,10.37
2019-05-11T04:35:31.331Z,10.37
2019-05-11T04:40:37.311Z,10.60
2019-05-11T04:45:44.451Z,10.91
2019-05-11T04:50:51.446Z,11.25
2019-05-11T04:55:59.394Z,11.52
2019-05-11T05:01:06.431Z,11.69
2019-05-11T05:06:24.903Z,11.77
2019-05-11T05:11:22.432Z,11.90
2019-05-11T05:16:31.471Z,12.08
2019-05-11T05:21:38.546Z,12.33
2019-05-11T05:26:45.495Z,12.57
2019-05-11T05:31:52.431Z,12.81
2019-05-11T05:36:59.459Z,13.11
2019-05-11T05:42:06.514Z,13.37
2019-05-11T05:47:13.467Z,13.83
2019-05-11T05:52:20.459Z,13.98
2019-05-11T05:57:27.461Z,13.98
2019-05-11T06:02:34.448Z,14.12
2019-05-11T06:07:43.425Z,14.24
2019-05-11T06:12:51.590Z,14.28
2019-05-11T06:18:00.574Z,14.22
2019-05-11T06:23:07.475Z,14.22
2019-05-11T06:28:14.568Z,14.12
2019-05-11T06:33:23.443Z,14.05
2019-05-11T06:38:30.511Z,14.04
2019-05-11T06:43:37.442Z,14.13
2019-05-11T06:48:46.455Z,14.13
2019-05-11T06:53:53.446Z,14.14
2019-05-11T06:59:00.449Z,14.15
2019-05-11T07:04:07.500Z,14.14
2019-05-11T07:09:14.452Z,14.12
2019-05-11T07:14:21.687Z,14.15
2019-05-11T07:19:28.591Z,14.09
2019-05-11T07:24:36.631Z,14.40
2019-05-11T07:29:43.567Z,14.69
2019-05-11T07:34:50.668Z,14.69
2019-05-11T07:39:58.162Z,14.94
2019-05-11T07:45:09.620Z,14.94
2019-05-11T07:50:18.204Z,14.93
2019-05-11T07:55:24.304Z,14.93
2019-05-11T08:00:31.469Z,15.10
2019-05-11T08:05:38.693Z,15.28
2019-05-11T08:10:48.122Z,15.45
2019-05-11T08:15:54.866Z,15.46
2019-05-11T08:21:01.707Z,15.54
2019-05-11T08:26:08.609Z,15.91
2019-05-11T08:31:15.573Z,16.08
2019-05-11T08:36:22.545Z,16.37
2019-05-11T08:41:29.551Z,16.37
2019-05-11T08:46:38.624Z,17.22
2019-05-11T08:51:47.665Z,17.84
2019-05-11T08:56:54.454Z,17.84
2019-05-11T09:02:02.048Z,18.51
2019-05-11T09:07:09.344Z,19.05
2019-05-11T09:12:18.321Z,19.33
2019-05-11T09:17:25.455Z,19.50
2019-05-11T09:22:32.577Z,19.48
2019-05-11T09:27:39.455Z,20.80
2019-05-11T09:32:47.789Z,20.80
2019-05-11T09:37:55.393Z,21.35
2019-05-11T09:43:02.443Z,21.35
2019-05-11T09:48:09.559Z,21.32
2019-05-11T09:53:17.744Z,21.20
2019-05-11T09:58:24.612Z,21.03
2019-05-11T10:03:31.506Z,21.32
2019-05-11T10:08:38.455Z,21.32
2019-05-11T10:13:47.608Z,21.24
2019-05-11T10:18:54.700Z,20.35
2019-05-11T10:24:05.254Z,20.20
2019-05-11T10:29:11.312Z,20.17
2019-05-11T10:34:18.518Z,19.66
2019-05-11T10:39:27.704Z,19.67
2019-05-11T10:44:34.467Z,20.39
2019-05-11T10:49:41.571Z,20.77
2019-05-11T10:54:50.885Z,20.21
2019-05-11T10:59:58.109Z,20.21
2019-05-11T11:05:08.075Z,19.91
2019-05-11T11:10:15.108Z,19.74
2019-05-11T11:15:22.572Z,19.77
2019-05-11T11:20:29.474Z,20.37
2019-05-11T11:25:37.615Z,20.37
2019-05-11T11:30:44.584Z,20.29
2019-05-11T11:35:51.445Z,20.22
2019-05-11T11:40:58.833Z,20.22
2019-05-11T11:46:08.251Z,20.03
2019-05-11T11:51:14.465Z,19.82
2019-05-11T11:56:21.614Z,19.82
2019-05-11T12:01:28.570Z,19.98
2019-05-11T12:06:35.451Z,20.04
2019-05-11T12:11:44.768Z,20.04
2019-05-11T12:17:06.721Z,20.13
2019-05-11T12:22:02.044Z,20.17
2019-05-11T12:27:09.397Z,19.99
2019-05-11T12:32:22.725Z,19.82
2019-05-11T12:37:30.580Z,19.60
2019-05-11T12:42:38.474Z,19.02
2019-05-11T12:47:47.752Z,19.02
2019-05-11T12:52:56.007Z,18.42
2019-05-11T12:58:03.427Z,18.23
2019-05-11T13:03:11.464Z,18.14
2019-05-11T13:08:18.611Z,17.72
2019-05-11T13:13:25.547Z,17.72
2019-05-11T13:18:32.482Z,17.17
2019-05-11T13:23:39.466Z,16.80
2019-05-11T13:28:48.485Z,16.65
2019-05-11T13:33:55.433Z,16.65
2019-05-11T13:39:02.462Z,16.54
2019-05-11T13:44:09.467Z,16.41
2019-05-11T13:49:17.871Z,16.27
2019-05-11T13:54:25.567Z,16.27
2019-05-11T13:59:33.504Z,16.18
2019-05-11T14:04:40.586Z,16.09
2019-05-11T14:09:48.512Z,15.94
2019-05-11T14:14:57.672Z,15.85
2019-05-11T14:20:04.585Z,15.85
2019-05-11T14:25:12.096Z,15.79
2019-05-11T14:30:19.580Z,15.79
2019-05-11T14:35:28.044Z,15.74
2019-05-11T14:40:35.545Z,15.63
2019-05-11T14:45:42.539Z,15.63
2019-05-11T14:50:49.447Z,15.61
2019-05-11T14:55:58.463Z,15.61
2019-05-11T15:01:05.471Z,15.61
2019-05-11T15:06:12.577Z,15.53
2019-05-11T15:11:19.590Z,15.55
2019-05-11T15:16:27.855Z,15.65
2019-05-11T15:21:35.415Z,15.65
2019-05-11T15:28:28.643Z,15.66
2019-05-11T15:33:38.031Z,15.69
2019-05-11T15:38:44.452Z,15.70
2019-05-11T15:43:51.443Z,15.64
2019-05-11T15:49:03.072Z,15.04
2019-05-11T15:54:09.917Z,15.04
2019-05-11T15:59:16.766Z,14.76
2019-05-11T16:04:23.588Z,14.51
2019-05-11T16:09:30.570Z,14.17
2019-05-11T16:14:38.311Z,14.13
2019-05-11T16:19:45.470Z,14.13
2019-05-11T16:24:52.568Z,14.09
2019-05-11T16:29:59.652Z,14.02
2019-05-11T16:35:08.813Z,14.02
2019-05-11T16:40:20.186Z,13.98
2019-05-11T16:45:28.006Z,13.85
2019-05-11T16:50:34.586Z,13.70
2019-05-11T16:55:41.475Z,13.68
2019-05-11T17:00:49.580Z,13.67
2019-05-11T17:05:58.656Z,13.62
2019-05-11T17:11:08.001Z,13.62
2019-05-11T17:16:14.451Z,13.65
2019-05-11T17:21:21.629Z,13.65
2019-05-11T17:26:28.612Z,13.60
2019-05-11T17:31:37.862Z,13.57
2019-05-11T17:36:46.581Z,13.57
2019-05-11T17:46:59.280Z,13.59
2019-05-11T17:52:08.094Z,13.45
2019-05-11T17:57:15.725Z,13.41
2019-05-11T18:02:22.575Z,13.40
2019-05-11T18:07:30.941Z,13.38
2019-05-11T18:12:39.226Z,13.38
2019-05-11T18:17:48.472Z,13.40
2019-05-11T18:22:57.651Z,13.42
2019-05-11T18:28:04.451Z,13.33
2019-05-11T18:33:11.579Z,13.22
2019-05-11T18:38:18.592Z,13.02
2019-05-11T18:43:27.780Z,12.89
2019-05-11T18:48:37.966Z,12.89
2019-05-11T18:53:44.445Z,12.76
2019-05-11T18:58:53.036Z,12.61
2019-05-11T19:04:00.273Z,12.47
2019-05-11T19:09:08.739Z,12.35
2019-05-11T19:14:15.643Z,12.26
2019-05-11T19:19:22.602Z,12.23
2019-05-11T19:24:32.572Z,12.10
2019-05-11T19:29:39.588Z,12.02
2019-05-11T19:34:47.791Z,11.93
2019-05-11T19:39:54.701Z,11.93
2019-05-11T19:45:01.798Z,11.88
2019-05-11T19:50:09.260Z,11.81
2019-05-11T19:55:17.963Z,11.74
2019-05-11T20:00:28.272Z,11.68
2019-05-11T20:05:38.253Z,11.63
2019-05-11T20:10:45.449Z,11.52
2019-05-11T20:15:52.486Z,11.52
2019-05-11T20:20:59.587Z,11.33
2019-05-11T20:26:08.740Z,11.19
2019-05-11T20:35:38.317Z,11.12
2019-05-11T20:40:45.593Z,11.09
2019-05-11T20:45:52.547Z,11.09
2019-05-11T20:50:59.622Z,11.10
2019-05-11T20:56:08.532Z,11.13
2019-05-11T21:01:17.900Z,11.13
2019-05-11T21:06:25.950Z,11.18
2019-05-11T21:11:33.036Z,11.18
2019-05-11T21:16:40.279Z,11.23
2019-05-11T21:21:53.443Z,11.24
2019-05-11T21:26:58.421Z,11.29
2019-05-11T21:32:08.041Z,11.32
2019-05-11T21:37:14.920Z,11.32
2019-05-11T21:42:25.136Z,11.34
2019-05-11T21:47:34.853Z,11.35
2019-05-11T21:52:42.864Z,11.37
2019-05-11T21:57:50.245Z,11.39
2019-05-11T22:02:57.595Z,11.39
2019-05-11T22:08:04.701Z,11.43
2019-05-11T22:13:11.777Z,11.43
2019-05-11T22:18:30.612Z,11.44
2019-05-11T22:23:28.214Z,11.47
2019-05-11T22:32:09.611Z,11.40
2019-05-11T22:37:18.644Z,11.53
2019-05-11T22:42:27.881Z,11.49
2019-05-11T22:47:34.438Z,11.49
2019-05-11T22:52:41.588Z,11.52
2019-05-11T22:57:48.700Z,11.50
2019-05-11T23:02:55.775Z,11.50
2019-05-11T23:08:03.941Z,11.47
2019-05-11T23:13:12.573Z,11.47
2019-05-11T23:18:20.710Z,11.38
2019-05-11T23:23:28.674Z,11.38
2019-05-11T23:28:37.800Z,11.41
2019-05-11T23:33:45.103Z,11.41
2019-05-11T23:38:52.407Z,11.40
2019-05-11T23:43:59.586Z,11.42
2019-05-11T23:49:08.613Z,11.40
2019-05-11T23:54:15.580Z,11.40
2019-05-11T23:59:22.920Z,11.39
